sensor_id;sensor_type;location;lat;lon;timestamp;P1;durP1;ratioP1;P2;durP2;ratioP2
75499;SDS011;64076;51.466;7.260;2024-03-07T00:01:32;44.35;;;24.35;;
75499;SDS011;64076;51.466;7.260;2024-03-07T00:03:57;39.10;;;22.43;;
75499;SDS011;64076;51.466;7.260;2024-03-07T00:06:23;40.93;;;23.43;;
75499;SDS011;64076;51.466;7.260;2024-03-07T00:08:48;37.85;;;23.45;;
75499;SDS011;64076;51.466;7.260;2024-03-07T00:11:14;39.10;;;22.63;;
75499;SDS011;64076;51.466;7.260;2024-03-07T00:13:39;42.10;;;23.73;;
75499;SDS011;64076;51.466;7.260;2024-03-07T00:16:05;40.22;;;24.60;;
75499;SDS011;64076;51.466;7.260;2024-03-07T00:18:30;39.30;;;22.80;;
75499;SDS011;64076;51.466;7.260;2024-03-07T00:20:56;41.30;;;24.00;;
75499;SDS011;64076;51.466;7.260;2024-03-07T00:23:22;41.65;;;23.52;;
75499;SDS011;64076;51.466;7.260;2024-03-07T00:25:47;39.90;;;23.90;;
75499;SDS011;64076;51.466;7.260;2024-03-07T00:28:16;38.85;;;23.30;;
75499;SDS011;64076;51.466;7.260;2024-03-07T00:30:42;40.03;;;23.58;;
75499;SDS011;64076;51.466;7.260;2024-03-07T00:33:10;42.42;;;23.38;;
75499;SDS011;64076;51.466;7.260;2024-03-07T00:35:36;39.23;;;23.07;;
75499;SDS011;64076;51.466;7.260;2024-03-07T00:38:02;37.53;;;22.67;;
75499;SDS011;64076;51.466;7.260;2024-03-07T00:40:28;36.17;;;22.15;;
75499;SDS011;64076;51.466;7.260;2024-03-07T00:42:54;36.97;;;23.07;;
75499;SDS011;64076;51.466;7.260;2024-03-07T00:45:20;41.37;;;24.23;;
75499;SDS011;64076;51.466;7.260;2024-03-07T00:47:45;35.35;;;21.83;;
75499;SDS011;64076;51.466;7.260;2024-03-07T00:50:11;41.73;;;24.80;;
75499;SDS011;64076;51.466;7.260;2024-03-07T00:52:36;39.05;;;22.58;;
75499;SDS011;64076;51.466;7.260;2024-03-07T00:55:03;35.27;;;20.50;;
75499;SDS011;64076;51.466;7.260;2024-03-07T00:57:29;29.58;;;18.77;;
75499;SDS011;64076;51.466;7.260;2024-03-07T00:59:54;39.67;;;22.67;;
75499;SDS011;64076;51.466;7.260;2024-03-07T01:02:21;34.58;;;20.70;;
75499;SDS011;64076;51.466;7.260;2024-03-07T01:04:47;32.67;;;20.75;;
75499;SDS011;64076;51.466;7.260;2024-03-07T01:07:13;32.58;;;20.38;;
75499;SDS011;64076;51.466;7.260;2024-03-07T01:09:39;39.07;;;22.00;;
75499;SDS011;64076;51.466;7.260;2024-03-07T01:12:04;36.53;;;22.20;;
75499;SDS011;64076;51.466;7.260;2024-03-07T01:14:30;34.00;;;20.13;;
75499;SDS011;64076;51.466;7.260;2024-03-07T01:16:56;37.30;;;20.13;;
75499;SDS011;64076;51.466;7.260;2024-03-07T01:19:22;40.37;;;24.10;;
75499;SDS011;64076;51.466;7.260;2024-03-07T01:21:48;38.83;;;22.85;;
75499;SDS011;64076;51.466;7.260;2024-03-07T01:24:13;40.53;;;24.13;;
75499;SDS011;64076;51.466;7.260;2024-03-07T01:26:42;42.60;;;24.67;;
75499;SDS011;64076;51.466;7.260;2024-03-07T01:29:08;40.92;;;25.58;;
75499;SDS011;64076;51.466;7.260;2024-03-07T01:31:34;42.23;;;24.97;;
75499;SDS011;64076;51.466;7.260;2024-03-07T01:33:59;42.92;;;25.88;;
75499;SDS011;64076;51.466;7.260;2024-03-07T01:36:25;41.67;;;24.47;;
75499;SDS011;64076;51.466;7.260;2024-03-07T01:38:50;41.37;;;24.93;;
75499;SDS011;64076;51.466;7.260;2024-03-07T01:41:16;37.38;;;23.95;;
75499;SDS011;64076;51.466;7.260;2024-03-07T01:43:42;41.47;;;23.57;;
75499;SDS011;64076;51.466;7.260;2024-03-07T01:46:08;42.17;;;24.40;;
75499;SDS011;64076;51.466;7.260;2024-03-07T01:48:40;40.88;;;24.60;;
75499;SDS011;64076;51.466;7.260;2024-03-07T01:51:06;43.17;;;24.95;;
75499;SDS011;64076;51.466;7.260;2024-03-07T01:53:32;43.80;;;25.87;;
75499;SDS011;64076;51.466;7.260;2024-03-07T01:55:59;42.25;;;25.15;;
75499;SDS011;64076;51.466;7.260;2024-03-07T01:58:25;39.85;;;24.10;;
75499;SDS011;64076;51.466;7.260;2024-03-07T02:00:51;42.17;;;24.95;;
75499;SDS011;64076;51.466;7.260;2024-03-07T02:03:17;38.40;;;23.77;;
75499;SDS011;64076;51.466;7.260;2024-03-07T02:05:42;38.20;;;23.08;;
75499;SDS011;64076;51.466;7.260;2024-03-07T02:08:08;39.30;;;23.15;;
75499;SDS011;64076;51.466;7.260;2024-03-07T02:10:34;37.73;;;22.60;;
75499;SDS011;64076;51.466;7.260;2024-03-07T02:13:00;35.15;;;22.30;;
75499;SDS011;64076;51.466;7.260;2024-03-07T02:15:25;32.83;;;19.83;;
75499;SDS011;64076;51.466;7.260;2024-03-07T02:17:52;39.63;;;22.85;;
75499;SDS011;64076;51.466;7.260;2024-03-07T02:20:17;37.25;;;22.85;;
75499;SDS011;64076;51.466;7.260;2024-03-07T02:22:43;32.97;;;21.40;;
75499;SDS011;64076;51.466;7.260;2024-03-07T02:25:08;34.87;;;21.47;;
75499;SDS011;64076;51.466;7.260;2024-03-07T02:27:37;35.50;;;21.27;;
75499;SDS011;64076;51.466;7.260;2024-03-07T02:30:04;40.88;;;23.70;;
75499;SDS011;64076;51.466;7.260;2024-03-07T02:32:33;37.95;;;23.05;;
75499;SDS011;64076;51.466;7.260;2024-03-07T02:34:59;37.10;;;22.57;;
75499;SDS011;64076;51.466;7.260;2024-03-07T02:37:25;35.67;;;21.92;;
75499;SDS011;64076;51.466;7.260;2024-03-07T02:39:50;39.07;;;24.00;;
75499;SDS011;64076;51.466;7.260;2024-03-07T02:42:16;42.63;;;25.10;;
75499;SDS011;64076;51.466;7.260;2024-03-07T02:44:41;38.00;;;21.85;;
75499;SDS011;64076;51.466;7.260;2024-03-07T02:47:07;39.20;;;22.47;;
75499;SDS011;64076;51.466;7.260;2024-03-07T02:49:33;40.50;;;24.33;;
75499;SDS011;64076;51.466;7.260;2024-03-07T02:51:58;35.17;;;20.53;;
75499;SDS011;64076;51.466;7.260;2024-03-07T02:54:24;36.37;;;22.70;;
75499;SDS011;64076;51.466;7.260;2024-03-07T02:56:49;38.33;;;23.17;;
75499;SDS011;64076;51.466;7.260;2024-03-07T02:59:15;40.70;;;24.53;;
75499;SDS011;64076;51.466;7.260;2024-03-07T03:01:41;40.13;;;23.50;;
75499;SDS011;64076;51.466;7.260;2024-03-07T03:04:07;42.70;;;25.20;;
75499;SDS011;64076;51.466;7.260;2024-03-07T03:06:32;40.20;;;23.98;;
75499;SDS011;64076;51.466;7.260;2024-03-07T03:08:58;38.20;;;23.53;;
75499;SDS011;64076;51.466;7.260;2024-03-07T03:11:24;39.07;;;23.43;;
75499;SDS011;64076;51.466;7.260;2024-03-07T03:13:50;39.70;;;23.40;;
75499;SDS011;64076;51.466;7.260;2024-03-07T03:16:16;39.08;;;23.52;;
75499;SDS011;64076;51.466;7.260;2024-03-07T03:18:42;37.47;;;23.70;;
75499;SDS011;64076;51.466;7.260;2024-03-07T03:21:08;36.08;;;23.13;;
75499;SDS011;64076;51.466;7.260;2024-03-07T03:23:34;37.10;;;23.48;;
75499;SDS011;64076;51.466;7.260;2024-03-07T03:25:59;40.87;;;24.07;;
75499;SDS011;64076;51.466;7.260;2024-03-07T03:28:25;38.17;;;23.35;;
75499;SDS011;64076;51.466;7.260;2024-03-07T03:30:50;41.40;;;23.77;;
75499;SDS011;64076;51.466;7.260;2024-03-07T03:33:16;36.97;;;23.40;;
75499;SDS011;64076;51.466;7.260;2024-03-07T03:35:42;40.30;;;23.83;;
75499;SDS011;64076;51.466;7.260;2024-03-07T03:38:08;35.15;;;22.92;;
75499;SDS011;64076;51.466;7.260;2024-03-07T03:40:34;39.15;;;24.17;;
75499;SDS011;64076;51.466;7.260;2024-03-07T03:43:00;39.80;;;24.57;;
75499;SDS011;64076;51.466;7.260;2024-03-07T03:45:26;37.22;;;22.02;;
75499;SDS011;64076;51.466;7.260;2024-03-07T03:47:52;36.67;;;23.73;;
75499;SDS011;64076;51.466;7.260;2024-03-07T03:50:18;38.73;;;23.10;;
75499;SDS011;64076;51.466;7.260;2024-03-07T03:52:44;39.78;;;24.55;;
75499;SDS011;64076;51.466;7.260;2024-03-07T03:55:10;38.58;;;24.15;;
75499;SDS011;64076;51.466;7.260;2024-03-07T03:57:37;38.92;;;22.52;;
75499;SDS011;64076;51.466;7.260;2024-03-07T04:00:07;35.10;;;21.93;;
75499;SDS011;64076;51.466;7.260;2024-03-07T04:02:50;36.00;;;22.27;;
75499;SDS011;64076;51.466;7.260;2024-03-07T04:05:17;37.22;;;22.67;;
75499;SDS011;64076;51.466;7.260;2024-03-07T04:07:45;37.08;;;21.70;;
75499;SDS011;64076;51.466;7.260;2024-03-07T04:10:11;36.70;;;23.55;;
75499;SDS011;64076;51.466;7.260;2024-03-07T04:12:38;35.77;;;22.57;;
75499;SDS011;64076;51.466;7.260;2024-03-07T04:15:08;33.65;;;20.33;;
75499;SDS011;64076;51.466;7.260;2024-03-07T04:17:35;29.02;;;18.85;;
75499;SDS011;64076;51.466;7.260;2024-03-07T04:20:02;38.15;;;22.15;;
75499;SDS011;64076;51.466;7.260;2024-03-07T04:22:30;28.80;;;18.15;;
75499;SDS011;64076;51.466;7.260;2024-03-07T04:24:56;34.77;;;21.63;;
75499;SDS011;64076;51.466;7.260;2024-03-07T04:27:22;33.40;;;21.33;;
75499;SDS011;64076;51.466;7.260;2024-03-07T04:29:48;39.03;;;22.77;;
75499;SDS011;64076;51.466;7.260;2024-03-07T04:32:14;33.83;;;21.20;;
75499;SDS011;64076;51.466;7.260;2024-03-07T04:34:40;33.90;;;22.15;;
75499;SDS011;64076;51.466;7.260;2024-03-07T04:37:05;33.67;;;21.03;;
75499;SDS011;64076;51.466;7.260;2024-03-07T04:39:31;35.90;;;22.67;;
75499;SDS011;64076;51.466;7.260;2024-03-07T04:42:00;34.60;;;22.37;;
75499;SDS011;64076;51.466;7.260;2024-03-07T04:44:29;35.45;;;22.95;;
75499;SDS011;64076;51.466;7.260;2024-03-07T04:46:55;33.17;;;21.23;;
75499;SDS011;64076;51.466;7.260;2024-03-07T04:49:26;34.65;;;22.33;;
75499;SDS011;64076;51.466;7.260;2024-03-07T04:51:53;34.97;;;22.40;;
75499;SDS011;64076;51.466;7.260;2024-03-07T04:54:21;31.27;;;20.67;;
75499;SDS011;64076;51.466;7.260;2024-03-07T04:56:48;35.38;;;22.15;;
75499;SDS011;64076;51.466;7.260;2024-03-07T04:59:14;32.45;;;21.88;;
75499;SDS011;64076;51.466;7.260;2024-03-07T05:01:41;35.67;;;23.00;;
75499;SDS011;64076;51.466;7.260;2024-03-07T05:04:07;34.90;;;21.83;;
75499;SDS011;64076;51.466;7.260;2024-03-07T05:06:33;33.40;;;21.93;;
75499;SDS011;64076;51.466;7.260;2024-03-07T05:09:00;33.72;;;21.00;;
75499;SDS011;64076;51.466;7.260;2024-03-07T05:11:29;32.38;;;21.83;;
75499;SDS011;64076;51.466;7.260;2024-03-07T05:13:55;33.47;;;21.45;;
75499;SDS011;64076;51.466;7.260;2024-03-07T05:16:25;30.83;;;20.63;;
75499;SDS011;64076;51.466;7.260;2024-03-07T05:18:54;35.30;;;22.23;;
75499;SDS011;64076;51.466;7.260;2024-03-07T05:21:24;33.97;;;22.65;;
75499;SDS011;64076;51.466;7.260;2024-03-07T05:23:59;34.25;;;21.55;;
75499;SDS011;64076;51.466;7.260;2024-03-07T05:26:26;31.17;;;21.33;;
75499;SDS011;64076;51.466;7.260;2024-03-07T05:28:52;31.87;;;20.63;;
75499;SDS011;64076;51.466;7.260;2024-03-07T05:31:19;30.33;;;20.60;;
75499;SDS011;64076;51.466;7.260;2024-03-07T05:33:45;30.83;;;20.85;;
75499;SDS011;64076;51.466;7.260;2024-03-07T05:36:11;33.27;;;20.03;;
75499;SDS011;64076;51.466;7.260;2024-03-07T05:38:40;32.25;;;21.27;;
75499;SDS011;64076;51.466;7.260;2024-03-07T05:41:10;32.28;;;21.20;;
75499;SDS011;64076;51.466;7.260;2024-03-07T05:43:37;32.63;;;20.30;;
75499;SDS011;64076;51.466;7.260;2024-03-07T05:46:03;30.40;;;20.10;;
75499;SDS011;64076;51.466;7.260;2024-03-07T05:48:31;32.95;;;20.45;;
75499;SDS011;64076;51.466;7.260;2024-03-07T05:51:00;31.40;;;21.23;;
75499;SDS011;64076;51.466;7.260;2024-03-07T05:53:26;33.10;;;20.57;;
75499;SDS011;64076;51.466;7.260;2024-03-07T05:55:51;31.95;;;20.73;;
75499;SDS011;64076;51.466;7.260;2024-03-07T05:58:17;33.80;;;21.83;;
75499;SDS011;64076;51.466;7.260;2024-03-07T06:00:44;35.00;;;21.95;;
75499;SDS011;64076;51.466;7.260;2024-03-07T06:03:14;32.20;;;21.63;;
75499;SDS011;64076;51.466;7.260;2024-03-07T06:05:48;33.85;;;22.05;;
75499;SDS011;64076;51.466;7.260;2024-03-07T06:08:17;33.27;;;20.63;;
75499;SDS011;64076;51.466;7.260;2024-03-07T06:10:44;32.33;;;21.05;;
75499;SDS011;64076;51.466;7.260;2024-03-07T06:13:14;32.45;;;20.75;;
75499;SDS011;64076;51.466;7.260;2024-03-07T06:15:44;31.83;;;20.50;;
75499;SDS011;64076;51.466;7.260;2024-03-07T06:18:11;32.13;;;20.63;;
75499;SDS011;64076;51.466;7.260;2024-03-07T06:20:38;31.33;;;21.10;;
75499;SDS011;64076;51.466;7.260;2024-03-07T06:23:07;25.70;;;17.95;;
75499;SDS011;64076;51.466;7.260;2024-03-07T06:25:41;28.10;;;18.63;;
75499;SDS011;64076;51.466;7.260;2024-03-07T06:28:15;26.45;;;17.70;;
75499;SDS011;64076;51.466;7.260;2024-03-07T06:30:42;29.15;;;19.13;;
75499;SDS011;64076;51.466;7.260;2024-03-07T06:33:08;29.63;;;19.10;;
75499;SDS011;64076;51.466;7.260;2024-03-07T06:35:41;26.00;;;17.80;;
75499;SDS011;64076;51.466;7.260;2024-03-07T06:38:07;24.15;;;17.10;;
75499;SDS011;64076;51.466;7.260;2024-03-07T06:40:38;23.00;;;16.27;;
75499;SDS011;64076;51.466;7.260;2024-03-07T06:43:10;23.60;;;16.30;;
75499;SDS011;64076;51.466;7.260;2024-03-07T06:45:39;22.85;;;14.68;;
75499;SDS011;64076;51.466;7.260;2024-03-07T06:48:06;20.02;;;14.18;;
75499;SDS011;64076;51.466;7.260;2024-03-07T06:50:36;17.45;;;13.27;;
75499;SDS011;64076;51.466;7.260;2024-03-07T06:53:02;19.83;;;13.57;;
75499;SDS011;64076;51.466;7.260;2024-03-07T06:55:29;18.40;;;13.52;;
75499;SDS011;64076;51.466;7.260;2024-03-07T06:57:54;17.53;;;13.00;;
75499;SDS011;64076;51.466;7.260;2024-03-07T07:00:20;16.13;;;12.05;;
75499;SDS011;64076;51.466;7.260;2024-03-07T07:02:48;16.93;;;11.97;;
75499;SDS011;64076;51.466;7.260;2024-03-07T07:05:15;16.63;;;12.47;;
75499;SDS011;64076;51.466;7.260;2024-03-07T07:07:43;16.70;;;12.30;;
75499;SDS011;64076;51.466;7.260;2024-03-07T07:10:14;15.02;;;11.52;;
75499;SDS011;64076;51.466;7.260;2024-03-07T07:12:45;15.25;;;11.85;;
75499;SDS011;64076;51.466;7.260;2024-03-07T07:15:13;14.38;;;11.23;;
75499;SDS011;64076;51.466;7.260;2024-03-07T07:17:40;13.83;;;11.23;;
75499;SDS011;64076;51.466;7.260;2024-03-07T07:20:06;15.18;;;10.93;;
75499;SDS011;64076;51.466;7.260;2024-03-07T07:22:38;13.52;;;11.30;;
75499;SDS011;64076;51.466;7.260;2024-03-07T07:25:04;14.50;;;10.98;;
75499;SDS011;64076;51.466;7.260;2024-03-07T07:27:32;12.80;;;10.38;;
75499;SDS011;64076;51.466;7.260;2024-03-07T07:29:58;14.27;;;11.10;;
75499;SDS011;64076;51.466;7.260;2024-03-07T07:32:26;15.65;;;10.82;;
75499;SDS011;64076;51.466;7.260;2024-03-07T07:34:52;12.88;;;10.65;;
75499;SDS011;64076;51.466;7.260;2024-03-07T07:37:18;13.23;;;10.27;;
75499;SDS011;64076;51.466;7.260;2024-03-07T07:39:44;11.70;;;9.52;;
75499;SDS011;64076;51.466;7.260;2024-03-07T07:42:11;15.20;;;10.35;;
75499;SDS011;64076;51.466;7.260;2024-03-07T07:44:36;12.40;;;9.97;;
75499;SDS011;64076;51.466;7.260;2024-03-07T07:47:02;13.20;;;9.80;;
75499;SDS011;64076;51.466;7.260;2024-03-07T07:49:27;11.83;;;10.00;;
75499;SDS011;64076;51.466;7.260;2024-03-07T07:51:53;12.75;;;9.80;;
75499;SDS011;64076;51.466;7.260;2024-03-07T07:54:19;11.67;;;9.63;;
75499;SDS011;64076;51.466;7.260;2024-03-07T07:56:46;11.95;;;9.88;;
75499;SDS011;64076;51.466;7.260;2024-03-07T07:59:12;11.18;;;9.50;;
75499;SDS011;64076;51.466;7.260;2024-03-07T08:01:40;11.32;;;9.25;;
75499;SDS011;64076;51.466;7.260;2024-03-07T08:04:06;14.33;;;9.57;;
75499;SDS011;64076;51.466;7.260;2024-03-07T08:06:33;11.95;;;9.68;;
75499;SDS011;64076;51.466;7.260;2024-03-07T08:08:59;11.03;;;9.10;;
75499;SDS011;64076;51.466;7.260;2024-03-07T08:11:24;11.32;;;9.70;;
75499;SDS011;64076;51.466;7.260;2024-03-07T08:13:50;10.40;;;8.80;;
75499;SDS011;64076;51.466;7.260;2024-03-07T08:16:16;11.82;;;9.50;;
75499;SDS011;64076;51.466;7.260;2024-03-07T08:18:43;11.73;;;9.82;;
75499;SDS011;64076;51.466;7.260;2024-03-07T08:21:09;12.77;;;10.00;;
75499;SDS011;64076;51.466;7.260;2024-03-07T08:23:38;11.60;;;9.40;;
75499;SDS011;64076;51.466;7.260;2024-03-07T08:26:03;11.67;;;9.40;;
75499;SDS011;64076;51.466;7.260;2024-03-07T08:28:30;13.57;;;9.32;;
75499;SDS011;64076;51.466;7.260;2024-03-07T08:30:56;12.15;;;9.30;;
75499;SDS011;64076;51.466;7.260;2024-03-07T08:33:21;12.40;;;10.30;;
75499;SDS011;64076;51.466;7.260;2024-03-07T08:35:47;12.80;;;10.07;;
75499;SDS011;64076;51.466;7.260;2024-03-07T08:38:14;11.40;;;9.93;;
75499;SDS011;64076;51.466;7.260;2024-03-07T08:40:40;11.27;;;9.87;;
75499;SDS011;64076;51.466;7.260;2024-03-07T08:43:06;11.70;;;9.65;;
75499;SDS011;64076;51.466;7.260;2024-03-07T08:45:32;13.32;;;10.63;;
75499;SDS011;64076;51.466;7.260;2024-03-07T08:47:58;12.83;;;10.37;;
75499;SDS011;64076;51.466;7.260;2024-03-07T08:50:24;13.70;;;10.77;;
75499;SDS011;64076;51.466;7.260;2024-03-07T08:52:51;13.27;;;10.98;;
75499;SDS011;64076;51.466;7.260;2024-03-07T08:55:22;13.40;;;10.80;;
75499;SDS011;64076;51.466;7.260;2024-03-07T08:57:49;14.88;;;11.20;;
75499;SDS011;64076;51.466;7.260;2024-03-07T09:00:16;13.43;;;10.93;;
75499;SDS011;64076;51.466;7.260;2024-03-07T09:02:53;14.10;;;11.10;;
75499;SDS011;64076;51.466;7.260;2024-03-07T09:05:23;13.20;;;10.82;;
75499;SDS011;64076;51.466;7.260;2024-03-07T09:07:49;12.88;;;10.52;;
75499;SDS011;64076;51.466;7.260;2024-03-07T09:10:15;14.75;;;11.18;;
75499;SDS011;64076;51.466;7.260;2024-03-07T09:12:41;13.10;;;10.57;;
75499;SDS011;64076;51.466;7.260;2024-03-07T09:15:07;12.52;;;10.93;;
75499;SDS011;64076;51.466;7.260;2024-03-07T09:17:35;13.40;;;10.05;;
75499;SDS011;64076;51.466;7.260;2024-03-07T09:20:01;12.77;;;10.17;;
75499;SDS011;64076;51.466;7.260;2024-03-07T09:22:30;12.88;;;10.25;;
75499;SDS011;64076;51.466;7.260;2024-03-07T09:24:56;10.77;;;9.27;;
75499;SDS011;64076;51.466;7.260;2024-03-07T09:27:22;10.48;;;8.40;;
75499;SDS011;64076;51.466;7.260;2024-03-07T09:29:47;9.90;;;8.20;;
75499;SDS011;64076;51.466;7.260;2024-03-07T09:32:13;9.30;;;7.90;;
75499;SDS011;64076;51.466;7.260;2024-03-07T09:34:39;9.40;;;7.55;;
75499;SDS011;64076;51.466;7.260;2024-03-07T09:37:05;9.18;;;7.78;;
75499;SDS011;64076;51.466;7.260;2024-03-07T09:39:33;8.05;;;6.95;;
75499;SDS011;64076;51.466;7.260;2024-03-07T09:42:07;8.87;;;7.00;;
75499;SDS011;64076;51.466;7.260;2024-03-07T09:44:38;9.30;;;7.03;;
75499;SDS011;64076;51.466;7.260;2024-03-07T09:47:05;8.15;;;6.90;;
75499;SDS011;64076;51.466;7.260;2024-03-07T09:49:32;8.50;;;6.60;;
75499;SDS011;64076;51.466;7.260;2024-03-07T09:52:01;9.13;;;7.07;;
75499;SDS011;64076;51.466;7.260;2024-03-07T09:54:32;8.03;;;6.43;;
75499;SDS011;64076;51.466;7.260;2024-03-07T09:56:59;8.57;;;6.68;;
75499;SDS011;64076;51.466;7.260;2024-03-07T09:59:28;9.23;;;6.40;;
75499;SDS011;64076;51.466;7.260;2024-03-07T10:01:55;8.05;;;6.53;;
75499;SDS011;64076;51.466;7.260;2024-03-07T10:04:26;8.55;;;6.70;;
75499;SDS011;64076;51.466;7.260;2024-03-07T10:06:55;8.83;;;6.47;;
75499;SDS011;64076;51.466;7.260;2024-03-07T10:09:21;7.60;;;6.63;;
75499;SDS011;64076;51.466;7.260;2024-03-07T10:11:57;9.00;;;7.78;;
75499;SDS011;64076;51.466;7.260;2024-03-07T10:14:23;9.88;;;8.40;;
75499;SDS011;64076;51.466;7.260;2024-03-07T10:16:49;10.63;;;8.87;;
75499;SDS011;64076;51.466;7.260;2024-03-07T10:19:15;10.43;;;8.40;;
75499;SDS011;64076;51.466;7.260;2024-03-07T10:21:41;11.10;;;9.40;;
75499;SDS011;64076;51.466;7.260;2024-03-07T10:24:07;10.27;;;8.98;;
75499;SDS011;64076;51.466;7.260;2024-03-07T10:26:34;10.52;;;8.88;;
75499;SDS011;64076;51.466;7.260;2024-03-07T10:29:00;10.27;;;8.13;;
75499;SDS011;64076;51.466;7.260;2024-03-07T10:31:29;8.93;;;7.87;;
75499;SDS011;64076;51.466;7.260;2024-03-07T10:33:59;9.75;;;7.72;;
75499;SDS011;64076;51.466;7.260;2024-03-07T10:36:27;10.15;;;7.72;;
75499;SDS011;64076;51.466;7.260;2024-03-07T10:38:57;8.30;;;7.40;;
75499;SDS011;64076;51.466;7.260;2024-03-07T10:41:28;8.38;;;7.07;;
75499;SDS011;64076;51.466;7.260;2024-03-07T10:43:57;9.40;;;7.47;;
75499;SDS011;64076;51.466;7.260;2024-03-07T10:46:25;8.25;;;6.97;;
75499;SDS011;64076;51.466;7.260;2024-03-07T10:48:55;8.32;;;7.03;;
75499;SDS011;64076;51.466;7.260;2024-03-07T10:51:25;10.25;;;7.15;;
75499;SDS011;64076;51.466;7.260;2024-03-07T10:59:17;8.93;;;6.95;;
75499;SDS011;64076;51.466;7.260;2024-03-07T11:01:57;8.20;;;6.72;;
75499;SDS011;64076;51.466;7.260;2024-03-07T11:04:24;10.27;;;6.75;;
75499;SDS011;64076;51.466;7.260;2024-03-07T11:06:51;8.15;;;6.45;;
75499;SDS011;64076;51.466;7.260;2024-03-07T11:09:16;7.63;;;6.20;;
75499;SDS011;64076;51.466;7.260;2024-03-07T11:11:48;8.30;;;6.50;;
75499;SDS011;64076;51.466;7.260;2024-03-07T11:14:14;7.97;;;6.20;;
75499;SDS011;64076;51.466;7.260;2024-03-07T11:16:42;7.25;;;6.45;;
75499;SDS011;64076;51.466;7.260;2024-03-07T11:19:27;6.63;;;5.82;;
75499;SDS011;64076;51.466;7.260;2024-03-07T11:21:55;7.82;;;5.82;;
75499;SDS011;64076;51.466;7.260;2024-03-07T11:24:24;11.45;;;6.18;;
75499;SDS011;64076;51.466;7.260;2024-03-07T11:26:51;8.10;;;6.30;;
75499;SDS011;64076;51.466;7.260;2024-03-07T11:32:21;7.35;;;5.57;;
75499;SDS011;64076;51.466;7.260;2024-03-07T11:34:47;8.35;;;6.13;;
75499;SDS011;64076;51.466;7.260;2024-03-07T11:37:21;7.40;;;5.90;;
75499;SDS011;64076;51.466;7.260;2024-03-07T11:40:06;7.00;;;5.57;;
75499;SDS011;64076;51.466;7.260;2024-03-07T11:42:33;7.15;;;5.95;;
75499;SDS011;64076;51.466;7.260;2024-03-07T11:45:00;8.20;;;5.85;;
75499;SDS011;64076;51.466;7.260;2024-03-07T11:47:34;7.05;;;5.68;;
75499;SDS011;64076;51.466;7.260;2024-03-07T11:50:03;7.63;;;5.78;;
75499;SDS011;64076;51.466;7.260;2024-03-07T11:52:33;6.63;;;5.40;;
75499;SDS011;64076;51.466;7.260;2024-03-07T11:55:01;6.70;;;5.30;;
75499;SDS011;64076;51.466;7.260;2024-03-07T11:57:30;7.88;;;6.00;;
75499;SDS011;64076;51.466;7.260;2024-03-07T11:59:58;11.40;;;5.97;;
75499;SDS011;64076;51.466;7.260;2024-03-07T12:02:36;7.53;;;6.13;;
75499;SDS011;64076;51.466;7.260;2024-03-07T12:05:03;6.83;;;5.87;;
75499;SDS011;64076;51.466;7.260;2024-03-07T12:07:30;6.65;;;5.38;;
75499;SDS011;64076;51.466;7.260;2024-03-07T12:09:59;6.43;;;5.47;;
75499;SDS011;64076;51.466;7.260;2024-03-07T12:12:28;6.68;;;5.65;;
75499;SDS011;64076;51.466;7.260;2024-03-07T12:14:54;7.13;;;6.22;;
75499;SDS011;64076;51.466;7.260;2024-03-07T12:17:22;7.10;;;5.77;;
75499;SDS011;64076;51.466;7.260;2024-03-07T12:19:49;7.15;;;5.53;;
75499;SDS011;64076;51.466;7.260;2024-03-07T12:22:18;6.57;;;5.33;;
75499;SDS011;64076;51.466;7.260;2024-03-07T12:24:48;7.03;;;5.50;;
75499;SDS011;64076;51.466;7.260;2024-03-07T12:27:27;6.18;;;5.40;;
75499;SDS011;64076;51.466;7.260;2024-03-07T12:29:54;6.90;;;6.13;;
75499;SDS011;64076;51.466;7.260;2024-03-07T12:32:19;6.70;;;6.00;;
75499;SDS011;64076;51.466;7.260;2024-03-07T12:34:46;7.00;;;5.80;;
75499;SDS011;64076;51.466;7.260;2024-03-07T12:37:14;6.60;;;5.47;;
75499;SDS011;64076;51.466;7.260;2024-03-07T12:39:41;6.10;;;5.23;;
75499;SDS011;64076;51.466;7.260;2024-03-07T12:42:23;9.80;;;5.82;;
75499;SDS011;64076;51.466;7.260;2024-03-07T12:44:50;10.00;;;5.43;;
75499;SDS011;64076;51.466;7.260;2024-03-07T12:47:16;7.17;;;5.23;;
75499;SDS011;64076;51.466;7.260;2024-03-07T12:49:42;6.07;;;5.28;;
75499;SDS011;64076;51.466;7.260;2024-03-07T12:52:09;7.03;;;5.25;;
75499;SDS011;64076;51.466;7.260;2024-03-07T12:54:37;6.65;;;5.13;;
75499;SDS011;64076;51.466;7.260;2024-03-07T12:57:06;6.30;;;5.70;;
75499;SDS011;64076;51.466;7.260;2024-03-07T12:59:36;6.70;;;5.40;;
75499;SDS011;64076;51.466;7.260;2024-03-07T13:02:08;6.00;;;5.05;;
75499;SDS011;64076;51.466;7.260;2024-03-07T13:04:34;6.45;;;5.10;;
75499;SDS011;64076;51.466;7.260;2024-03-07T13:07:01;5.82;;;4.72;;
75499;SDS011;64076;51.466;7.260;2024-03-07T13:09:29;6.72;;;4.80;;
75499;SDS011;64076;51.466;7.260;2024-03-07T13:11:58;5.70;;;5.03;;
75499;SDS011;64076;51.466;7.260;2024-03-07T13:14:28;6.28;;;5.32;;
75499;SDS011;64076;51.466;7.260;2024-03-07T13:17:00;6.85;;;4.53;;
75499;SDS011;64076;51.466;7.260;2024-03-07T13:19:26;5.45;;;4.30;;
75499;SDS011;64076;51.466;7.260;2024-03-07T13:21:52;5.40;;;4.32;;
75499;SDS011;64076;51.466;7.260;2024-03-07T13:24:18;5.47;;;4.57;;
75499;SDS011;64076;51.466;7.260;2024-03-07T13:26:45;4.78;;;3.97;;
75499;SDS011;64076;51.466;7.260;2024-03-07T13:29:13;5.63;;;4.47;;
75499;SDS011;64076;51.466;7.260;2024-03-07T13:31:39;5.38;;;4.53;;
75499;SDS011;64076;51.466;7.260;2024-03-07T13:34:07;6.05;;;4.40;;
75499;SDS011;64076;51.466;7.260;2024-03-07T13:36:38;4.80;;;4.20;;
75499;SDS011;64076;51.466;7.260;2024-03-07T13:39:07;5.68;;;4.18;;
75499;SDS011;64076;51.466;7.260;2024-03-07T13:41:37;4.80;;;4.30;;
75499;SDS011;64076;51.466;7.260;2024-03-07T13:44:03;5.47;;;4.47;;
75499;SDS011;64076;51.466;7.260;2024-03-07T13:46:29;5.15;;;4.05;;
75499;SDS011;64076;51.466;7.260;2024-03-07T13:49:00;5.20;;;4.50;;
75499;SDS011;64076;51.466;7.260;2024-03-07T13:51:37;5.60;;;4.40;;
75499;SDS011;64076;51.466;7.260;2024-03-07T13:54:05;5.40;;;4.80;;
75499;SDS011;64076;51.466;7.260;2024-03-07T14:06:11;3.78;;;3.17;;
75499;SDS011;64076;51.466;7.260;2024-03-07T14:17:57;4.43;;;3.83;;
75499;SDS011;64076;51.466;7.260;2024-03-07T14:27:06;5.03;;;3.40;;
75499;SDS011;64076;51.466;7.260;2024-03-07T14:30:02;5.55;;;3.60;;
75499;SDS011;64076;51.466;7.260;2024-03-07T14:32:53;4.27;;;3.13;;
75499;SDS011;64076;51.466;7.260;2024-03-07T14:40:38;5.20;;;3.40;;
75499;SDS011;64076;51.466;7.260;2024-03-07T14:43:04;4.60;;;3.37;;
75499;SDS011;64076;51.466;7.260;2024-03-07T14:45:34;4.20;;;3.45;;
75499;SDS011;64076;51.466;7.260;2024-03-07T14:48:05;4.68;;;2.88;;
75499;SDS011;64076;51.466;7.260;2024-03-07T14:50:36;4.55;;;3.20;;
75499;SDS011;64076;51.466;7.260;2024-03-07T14:53:06;5.87;;;3.07;;
75499;SDS011;64076;51.466;7.260;2024-03-07T14:55:31;4.97;;;3.20;;
75499;SDS011;64076;51.466;7.260;2024-03-07T14:57:58;4.25;;;3.20;;
75499;SDS011;64076;51.466;7.260;2024-03-07T15:00:24;5.43;;;3.60;;
75499;SDS011;64076;51.466;7.260;2024-03-07T15:02:53;4.70;;;3.80;;
75499;SDS011;64076;51.466;7.260;2024-03-07T15:05:23;5.97;;;3.72;;
75499;SDS011;64076;51.466;7.260;2024-03-07T15:07:49;4.60;;;3.33;;
75499;SDS011;64076;51.466;7.260;2024-03-07T15:10:37;7.22;;;4.10;;
75499;SDS011;64076;51.466;7.260;2024-03-07T15:13:11;4.93;;;3.90;;